Strathcarron, United Kingdom
Current Conditions -  °F | °C
As of 12:20 AM on Tuesday 25 Nov 2014 (Local Time) from EGPL Reporting Station
Clear Clear  
Wind Chill: 40°   Ceiling: Unl
Heat Index: 43°   Visibility: 6mi
Dew Point: 36°   Wind: 5mph
Humidity: 76%   Direction: 280°W
Pressure: 30.21"   Gusts: NA
Location:  57.41°N, 5.81°W
Report Text: EGPL 250020Z AUTO 28004KT 9999 NCD 06/02 Q1023
Loading
Personal Weather Stations






























Interactive Weather Map New forecast layout! Learn more

10-Day Weather Forecast

Advertisements
Track Severe Weather on mobile